Portland, Oregon
Traffic Map
Current Weather Conditions
Portland, Oregon
Broken Clouds
Broken Clouds
11°
Feels Like: 11°
Wind Chill: 11° Ceiling: 10000
Heat Index: 11° Visibility: 10mi
Dew Point: Wind: 9mph
Humidity: 86% Direction: 100° (E)
Pressure: 30.34in Gusts: 0mph
Raw Report DataKPDX 241953Z 10008KT 10SM FEW006 FEW050 BKN100 11/08 A3034 RMK AO2 SLP274 T01060083
Traffic Incident Summary
Active as of:
Severity:
Category:
InformationThere was an issue retrieving the traffic information for this location. Please try a different location or try again shortly.
Advertisements
Track Severe Weather on mobile